sensor_id;sensor_type;location;lat;lon;timestamp;P1;durP1;ratioP1;P2;durP2;ratioP2
13388;SDS011;6764;53.250;10.410;2023-04-25T00:02:25;8.33;;;5.43;;
13388;SDS011;6764;53.250;10.410;2023-04-25T00:04:50;7.67;;;5.57;;
13388;SDS011;6764;53.250;10.410;2023-04-25T00:07:16;5.60;;;5.10;;
13388;SDS011;6764;53.250;10.410;2023-04-25T00:09:42;6.17;;;5.23;;
13388;SDS011;6764;53.250;10.410;2023-04-25T00:12:08;7.03;;;5.67;;
13388;SDS011;6764;53.250;10.410;2023-04-25T00:14:34;5.70;;;5.10;;
13388;SDS011;6764;53.250;10.410;2023-04-25T00:17:00;8.30;;;5.30;;
13388;SDS011;6764;53.250;10.410;2023-04-25T00:19:26;8.03;;;5.17;;
13388;SDS011;6764;53.250;10.410;2023-04-25T00:21:53;6.57;;;5.20;;
13388;SDS011;6764;53.250;10.410;2023-04-25T00:24:19;5.90;;;5.27;;
13388;SDS011;6764;53.250;10.410;2023-04-25T00:26:45;8.20;;;5.37;;
13388;SDS011;6764;53.250;10.410;2023-04-25T00:29:11;6.87;;;5.57;;
13388;SDS011;6764;53.250;10.410;2023-04-25T00:31:36;6.60;;;4.93;;
13388;SDS011;6764;53.250;10.410;2023-04-25T00:34:02;6.33;;;5.27;;
13388;SDS011;6764;53.250;10.410;2023-04-25T00:36:28;5.53;;;5.03;;
13388;SDS011;6764;53.250;10.410;2023-04-25T00:38:53;9.00;;;5.40;;
13388;SDS011;6764;53.250;10.410;2023-04-25T00:41:21;6.10;;;5.50;;
13388;SDS011;6764;53.250;10.410;2023-04-25T00:43:47;8.43;;;5.60;;
13388;SDS011;6764;53.250;10.410;2023-04-25T00:46:13;6.80;;;5.33;;
13388;SDS011;6764;53.250;10.410;2023-04-25T00:48:39;7.80;;;5.70;;
13388;SDS011;6764;53.250;10.410;2023-04-25T00:51:04;8.27;;;5.80;;
13388;SDS011;6764;53.250;10.410;2023-04-25T00:53:31;8.33;;;6.20;;
13388;SDS011;6764;53.250;10.410;2023-04-25T00:55:57;8.93;;;6.33;;
13388;SDS011;6764;53.250;10.410;2023-04-25T00:58:23;6.90;;;6.20;;
13388;SDS011;6764;53.250;10.410;2023-04-25T01:00:50;10.37;;;6.77;;
13388;SDS011;6764;53.250;10.410;2023-04-25T01:03:19;7.37;;;6.20;;
13388;SDS011;6764;53.250;10.410;2023-04-25T01:05:45;8.03;;;6.10;;
13388;SDS011;6764;53.250;10.410;2023-04-25T01:08:12;6.70;;;6.10;;
13388;SDS011;6764;53.250;10.410;2023-04-25T01:10:38;8.57;;;6.10;;
13388;SDS011;6764;53.250;10.410;2023-04-25T01:13:04;9.67;;;6.50;;
13388;SDS011;6764;53.250;10.410;2023-04-25T01:15:30;9.33;;;7.30;;
13388;SDS011;6764;53.250;10.410;2023-04-25T01:17:55;10.50;;;6.10;;
13388;SDS011;6764;53.250;10.410;2023-04-25T01:20:23;7.97;;;6.20;;
13388;SDS011;6764;53.250;10.410;2023-04-25T01:22:50;7.90;;;6.50;;
13388;SDS011;6764;53.250;10.410;2023-04-25T01:25:17;8.53;;;5.57;;
13388;SDS011;6764;53.250;10.410;2023-04-25T01:27:43;6.80;;;4.87;;
13388;SDS011;6764;53.250;10.410;2023-04-25T01:33:17;6.23;;;4.23;;
13388;SDS011;6764;53.250;10.410;2023-04-25T01:35:45;6.73;;;4.83;;
13388;SDS011;6764;53.250;10.410;2023-04-25T01:38:12;6.50;;;3.90;;
13388;SDS011;6764;53.250;10.410;2023-04-25T01:40:38;11.20;;;4.20;;
13388;SDS011;6764;53.250;10.410;2023-04-25T01:43:05;10.77;;;4.20;;
13388;SDS011;6764;53.250;10.410;2023-04-25T01:45:31;8.37;;;4.17;;
13388;SDS011;6764;53.250;10.410;2023-04-25T01:47:58;10.70;;;4.67;;
13388;SDS011;6764;53.250;10.410;2023-04-25T01:50:24;10.53;;;4.37;;
13388;SDS011;6764;53.250;10.410;2023-04-25T01:52:50;10.53;;;4.17;;
13388;SDS011;6764;53.250;10.410;2023-04-25T01:55:16;12.27;;;4.53;;
13388;SDS011;6764;53.250;10.410;2023-04-25T01:57:41;12.03;;;4.37;;
13388;SDS011;6764;53.250;10.410;2023-04-25T02:00:07;14.40;;;3.93;;
13388;SDS011;6764;53.250;10.410;2023-04-25T02:02:34;14.60;;;4.13;;
13388;SDS011;6764;53.250;10.410;2023-04-25T02:05:00;19.63;;;4.43;;
13388;SDS011;6764;53.250;10.410;2023-04-25T02:07:26;15.10;;;4.47;;
13388;SDS011;6764;53.250;10.410;2023-04-25T02:13:14;18.37;;;4.77;;
13388;SDS011;6764;53.250;10.410;2023-04-25T02:15:39;25.87;;;4.77;;
13388;SDS011;6764;53.250;10.410;2023-04-25T02:18:06;21.03;;;4.40;;
13388;SDS011;6764;53.250;10.410;2023-04-25T02:20:31;12.37;;;4.27;;
13388;SDS011;6764;53.250;10.410;2023-04-25T02:22:57;12.67;;;4.27;;
13388;SDS011;6764;53.250;10.410;2023-04-25T02:25:23;12.03;;;4.40;;
13388;SDS011;6764;53.250;10.410;2023-04-25T02:27:48;18.27;;;4.53;;
13388;SDS011;6764;53.250;10.410;2023-04-25T02:30:15;13.90;;;4.17;;
13388;SDS011;6764;53.250;10.410;2023-04-25T02:32:40;15.70;;;4.57;;
13388;SDS011;6764;53.250;10.410;2023-04-25T02:35:06;26.97;;;6.20;;
13388;SDS011;6764;53.250;10.410;2023-04-25T02:37:33;18.23;;;4.87;;
13388;SDS011;6764;53.250;10.410;2023-04-25T02:39:59;15.53;;;4.40;;
13388;SDS011;6764;53.250;10.410;2023-04-25T02:42:26;15.93;;;4.67;;
13388;SDS011;6764;53.250;10.410;2023-04-25T02:44:52;15.13;;;4.50;;
13388;SDS011;6764;53.250;10.410;2023-04-25T02:47:18;19.47;;;5.37;;
13388;SDS011;6764;53.250;10.410;2023-04-25T02:49:44;16.70;;;4.60;;
13388;SDS011;6764;53.250;10.410;2023-04-25T02:52:10;22.30;;;4.77;;
13388;SDS011;6764;53.250;10.410;2023-04-25T02:54:36;19.33;;;5.43;;
13388;SDS011;6764;53.250;10.410;2023-04-25T02:57:01;23.23;;;5.40;;
13388;SDS011;6764;53.250;10.410;2023-04-25T02:59:27;15.93;;;4.97;;
13388;SDS011;6764;53.250;10.410;2023-04-25T03:01:53;24.67;;;5.40;;
13388;SDS011;6764;53.250;10.410;2023-04-25T03:04:19;17.70;;;5.57;;
13388;SDS011;6764;53.250;10.410;2023-04-25T03:06:45;18.10;;;5.47;;
13388;SDS011;6764;53.250;10.410;2023-04-25T03:09:11;16.83;;;4.67;;
13388;SDS011;6764;53.250;10.410;2023-04-25T03:11:38;21.70;;;5.20;;
13388;SDS011;6764;53.250;10.410;2023-04-25T03:14:04;21.80;;;5.93;;
13388;SDS011;6764;53.250;10.410;2023-04-25T03:16:30;18.63;;;5.87;;
13388;SDS011;6764;53.250;10.410;2023-04-25T03:18:56;18.43;;;5.43;;
13388;SDS011;6764;53.250;10.410;2023-04-25T03:21:21;17.97;;;4.87;;
13388;SDS011;6764;53.250;10.410;2023-04-25T03:23:47;22.60;;;5.57;;
13388;SDS011;6764;53.250;10.410;2023-04-25T03:26:13;22.83;;;5.03;;
13388;SDS011;6764;53.250;10.410;2023-04-25T03:28:39;21.57;;;5.83;;
13388;SDS011;6764;53.250;10.410;2023-04-25T03:31:05;18.17;;;5.27;;
13388;SDS011;6764;53.250;10.410;2023-04-25T03:33:31;20.23;;;5.13;;
13388;SDS011;6764;53.250;10.410;2023-04-25T03:35:56;26.17;;;5.40;;
13388;SDS011;6764;53.250;10.410;2023-04-25T03:38:22;23.27;;;5.40;;
13388;SDS011;6764;53.250;10.410;2023-04-25T03:40:48;21.70;;;5.77;;
13388;SDS011;6764;53.250;10.410;2023-04-25T03:43:15;19.23;;;5.00;;
13388;SDS011;6764;53.250;10.410;2023-04-25T03:45:41;20.70;;;5.10;;
13388;SDS011;6764;53.250;10.410;2023-04-25T03:48:06;19.47;;;5.27;;
13388;SDS011;6764;53.250;10.410;2023-04-25T03:50:32;18.27;;;4.97;;
13388;SDS011;6764;53.250;10.410;2023-04-25T03:52:58;20.87;;;5.73;;
13388;SDS011;6764;53.250;10.410;2023-04-25T03:55:23;25.70;;;5.57;;
13388;SDS011;6764;53.250;10.410;2023-04-25T03:57:49;20.73;;;5.27;;
13388;SDS011;6764;53.250;10.410;2023-04-25T04:00:15;16.10;;;5.23;;
13388;SDS011;6764;53.250;10.410;2023-04-25T04:02:40;20.50;;;5.13;;
13388;SDS011;6764;53.250;10.410;2023-04-25T04:05:06;21.07;;;5.70;;
13388;SDS011;6764;53.250;10.410;2023-04-25T04:07:32;19.37;;;5.83;;
13388;SDS011;6764;53.250;10.410;2023-04-25T04:09:58;22.43;;;5.10;;
13388;SDS011;6764;53.250;10.410;2023-04-25T04:12:24;19.90;;;5.50;;
13388;SDS011;6764;53.250;10.410;2023-04-25T04:14:49;18.53;;;5.60;;
13388;SDS011;6764;53.250;10.410;2023-04-25T04:17:15;19.37;;;5.20;;
13388;SDS011;6764;53.250;10.410;2023-04-25T04:19:41;25.37;;;5.30;;
13388;SDS011;6764;53.250;10.410;2023-04-25T04:22:06;27.50;;;5.57;;
13388;SDS011;6764;53.250;10.410;2023-04-25T04:24:32;16.63;;;4.87;;
13388;SDS011;6764;53.250;10.410;2023-04-25T04:26:58;18.37;;;5.97;;
13388;SDS011;6764;53.250;10.410;2023-04-25T04:29:24;17.83;;;5.00;;
13388;SDS011;6764;53.250;10.410;2023-04-25T04:31:50;21.33;;;4.70;;
13388;SDS011;6764;53.250;10.410;2023-04-25T04:34:17;18.97;;;5.40;;
13388;SDS011;6764;53.250;10.410;2023-04-25T04:36:43;21.43;;;5.23;;
13388;SDS011;6764;53.250;10.410;2023-04-25T04:39:11;22.60;;;5.37;;
13388;SDS011;6764;53.250;10.410;2023-04-25T04:41:37;15.43;;;4.70;;
13388;SDS011;6764;53.250;10.410;2023-04-25T04:44:02;21.20;;;5.93;;
13388;SDS011;6764;53.250;10.410;2023-04-25T04:46:28;18.93;;;6.27;;
13388;SDS011;6764;53.250;10.410;2023-04-25T04:48:56;35.03;;;9.57;;
13388;SDS011;6764;53.250;10.410;2023-04-25T04:51:21;21.13;;;5.50;;
13388;SDS011;6764;53.250;10.410;2023-04-25T04:53:47;17.90;;;4.87;;
13388;SDS011;6764;53.250;10.410;2023-04-25T04:56:12;18.63;;;4.50;;
13388;SDS011;6764;53.250;10.410;2023-04-25T04:58:38;15.27;;;4.57;;
13388;SDS011;6764;53.250;10.410;2023-04-25T05:01:04;27.17;;;5.40;;
13388;SDS011;6764;53.250;10.410;2023-04-25T05:03:30;15.90;;;5.27;;
13388;SDS011;6764;53.250;10.410;2023-04-25T05:05:55;13.90;;;4.70;;
13388;SDS011;6764;53.250;10.410;2023-04-25T05:08:21;18.50;;;4.57;;
13388;SDS011;6764;53.250;10.410;2023-04-25T05:10:46;22.30;;;5.43;;
13388;SDS011;6764;53.250;10.410;2023-04-25T05:13:12;17.33;;;4.50;;
13388;SDS011;6764;53.250;10.410;2023-04-25T05:15:37;18.40;;;4.93;;
13388;SDS011;6764;53.250;10.410;2023-04-25T05:18:03;16.03;;;4.97;;
13388;SDS011;6764;53.250;10.410;2023-04-25T05:20:29;19.00;;;4.73;;
13388;SDS011;6764;53.250;10.410;2023-04-25T05:22:54;12.70;;;4.57;;
13388;SDS011;6764;53.250;10.410;2023-04-25T05:25:20;18.50;;;4.97;;
13388;SDS011;6764;53.250;10.410;2023-04-25T05:27:46;14.40;;;4.27;;
13388;SDS011;6764;53.250;10.410;2023-04-25T05:30:11;14.37;;;4.50;;
13388;SDS011;6764;53.250;10.410;2023-04-25T05:32:37;20.43;;;4.43;;
13388;SDS011;6764;53.250;10.410;2023-04-25T05:35:03;16.83;;;4.17;;
13388;SDS011;6764;53.250;10.410;2023-04-25T05:37:28;11.70;;;4.47;;
13388;SDS011;6764;53.250;10.410;2023-04-25T05:39:56;18.90;;;4.47;;
13388;SDS011;6764;53.250;10.410;2023-04-25T05:42:21;14.00;;;4.37;;
13388;SDS011;6764;53.250;10.410;2023-04-25T05:44:47;17.73;;;4.23;;
13388;SDS011;6764;53.250;10.410;2023-04-25T05:47:12;20.33;;;4.93;;
13388;SDS011;6764;53.250;10.410;2023-04-25T05:49:38;16.80;;;4.77;;
13388;SDS011;6764;53.250;10.410;2023-04-25T05:52:04;11.57;;;4.50;;
13388;SDS011;6764;53.250;10.410;2023-04-25T05:54:30;13.70;;;4.10;;
13388;SDS011;6764;53.250;10.410;2023-04-25T05:56:56;16.07;;;4.53;;
13388;SDS011;6764;53.250;10.410;2023-04-25T05:59:22;14.20;;;3.93;;
13388;SDS011;6764;53.250;10.410;2023-04-25T06:01:48;12.17;;;3.47;;
13388;SDS011;6764;53.250;10.410;2023-04-25T06:04:13;16.40;;;4.97;;
13388;SDS011;6764;53.250;10.410;2023-04-25T06:06:39;16.00;;;5.03;;
13388;SDS011;6764;53.250;10.410;2023-04-25T06:09:04;15.87;;;4.37;;
13388;SDS011;6764;53.250;10.410;2023-04-25T06:11:30;16.90;;;3.80;;
13388;SDS011;6764;53.250;10.410;2023-04-25T06:13:56;19.60;;;4.37;;
13388;SDS011;6764;53.250;10.410;2023-04-25T06:16:21;19.80;;;4.30;;
13388;SDS011;6764;53.250;10.410;2023-04-25T06:18:47;11.67;;;3.63;;
13388;SDS011;6764;53.250;10.410;2023-04-25T06:21:12;11.90;;;3.80;;
13388;SDS011;6764;53.250;10.410;2023-04-25T06:23:38;19.87;;;5.17;;
13388;SDS011;6764;53.250;10.410;2023-04-25T06:26:03;18.90;;;4.10;;
13388;SDS011;6764;53.250;10.410;2023-04-25T06:28:29;10.43;;;3.33;;
13388;SDS011;6764;53.250;10.410;2023-04-25T06:30:55;13.53;;;4.00;;
13388;SDS011;6764;53.250;10.410;2023-04-25T06:33:20;11.80;;;3.47;;
13388;SDS011;6764;53.250;10.410;2023-04-25T06:35:47;13.07;;;4.17;;
13388;SDS011;6764;53.250;10.410;2023-04-25T06:38:12;15.10;;;3.50;;
13388;SDS011;6764;53.250;10.410;2023-04-25T06:40:38;17.00;;;4.43;;
13388;SDS011;6764;53.250;10.410;2023-04-25T06:43:04;12.57;;;3.90;;
13388;SDS011;6764;53.250;10.410;2023-04-25T06:45:29;12.23;;;3.63;;
13388;SDS011;6764;53.250;10.410;2023-04-25T06:47:55;18.97;;;4.03;;
13388;SDS011;6764;53.250;10.410;2023-04-25T06:50:21;12.97;;;3.77;;
13388;SDS011;6764;53.250;10.410;2023-04-25T06:52:46;11.63;;;3.70;;
13388;SDS011;6764;53.250;10.410;2023-04-25T06:55:12;16.37;;;4.23;;
13388;SDS011;6764;53.250;10.410;2023-04-25T06:57:38;15.07;;;4.90;;
13388;SDS011;6764;53.250;10.410;2023-04-25T07:00:04;18.83;;;4.20;;
13388;SDS011;6764;53.250;10.410;2023-04-25T07:02:33;12.30;;;3.93;;
13388;SDS011;6764;53.250;10.410;2023-04-25T07:04:59;17.10;;;4.20;;
13388;SDS011;6764;53.250;10.410;2023-04-25T07:07:25;12.63;;;3.50;;
13388;SDS011;6764;53.250;10.410;2023-04-25T07:09:51;12.70;;;3.97;;
13388;SDS011;6764;53.250;10.410;2023-04-25T07:12:17;13.87;;;3.83;;
13388;SDS011;6764;53.250;10.410;2023-04-25T07:14:42;13.07;;;4.27;;
13388;SDS011;6764;53.250;10.410;2023-04-25T07:17:08;21.20;;;4.40;;
13388;SDS011;6764;53.250;10.410;2023-04-25T07:19:34;10.60;;;4.70;;
13388;SDS011;6764;53.250;10.410;2023-04-25T07:21:59;13.77;;;3.73;;
13388;SDS011;6764;53.250;10.410;2023-04-25T07:24:25;13.13;;;4.20;;
13388;SDS011;6764;53.250;10.410;2023-04-25T07:26:51;18.50;;;3.90;;
13388;SDS011;6764;53.250;10.410;2023-04-25T07:29:16;15.40;;;4.53;;
13388;SDS011;6764;53.250;10.410;2023-04-25T07:31:42;12.80;;;3.77;;
13388;SDS011;6764;53.250;10.410;2023-04-25T07:34:07;11.97;;;3.60;;
13388;SDS011;6764;53.250;10.410;2023-04-25T07:36:33;15.67;;;3.20;;
13388;SDS011;6764;53.250;10.410;2023-04-25T07:38:59;16.77;;;10.43;;
13388;SDS011;6764;53.250;10.410;2023-04-25T07:41:24;11.00;;;3.70;;
13388;SDS011;6764;53.250;10.410;2023-04-25T07:43:50;11.77;;;4.17;;
13388;SDS011;6764;53.250;10.410;2023-04-25T07:46:15;15.83;;;4.07;;
13388;SDS011;6764;53.250;10.410;2023-04-25T07:48:41;11.90;;;4.00;;
13388;SDS011;6764;53.250;10.410;2023-04-25T07:51:06;10.20;;;3.53;;
13388;SDS011;6764;53.250;10.410;2023-04-25T07:53:32;11.50;;;3.17;;
13388;SDS011;6764;53.250;10.410;2023-04-25T07:55:59;12.63;;;3.87;;
13388;SDS011;6764;53.250;10.410;2023-04-25T07:58:25;11.40;;;5.90;;
13388;SDS011;6764;53.250;10.410;2023-04-25T08:00:51;10.10;;;2.47;;
13388;SDS011;6764;53.250;10.410;2023-04-25T08:03:16;11.57;;;3.70;;
13388;SDS011;6764;53.250;10.410;2023-04-25T08:05:42;10.13;;;3.50;;
13388;SDS011;6764;53.250;10.410;2023-04-25T08:08:07;8.60;;;2.50;;
13388;SDS011;6764;53.250;10.410;2023-04-25T08:10:33;6.77;;;2.70;;
13388;SDS011;6764;53.250;10.410;2023-04-25T08:12:59;7.10;;;2.53;;
13388;SDS011;6764;53.250;10.410;2023-04-25T08:15:25;8.03;;;2.90;;
13388;SDS011;6764;53.250;10.410;2023-04-25T08:17:51;5.57;;;2.80;;
13388;SDS011;6764;53.250;10.410;2023-04-25T08:20:17;11.90;;;3.27;;
13388;SDS011;6764;53.250;10.410;2023-04-25T08:22:42;9.43;;;3.00;;
13388;SDS011;6764;53.250;10.410;2023-04-25T08:25:08;9.17;;;3.50;;
13388;SDS011;6764;53.250;10.410;2023-04-25T08:27:33;11.23;;;3.33;;
13388;SDS011;6764;53.250;10.410;2023-04-25T08:29:59;12.97;;;3.37;;
13388;SDS011;6764;53.250;10.410;2023-04-25T08:32:26;7.50;;;2.93;;
13388;SDS011;6764;53.250;10.410;2023-04-25T08:34:52;10.13;;;2.70;;
13388;SDS011;6764;53.250;10.410;2023-04-25T08:37:20;7.80;;;2.60;;
13388;SDS011;6764;53.250;10.410;2023-04-25T08:39:46;7.80;;;2.67;;
13388;SDS011;6764;53.250;10.410;2023-04-25T08:42:13;8.20;;;3.13;;
13388;SDS011;6764;53.250;10.410;2023-04-25T08:44:40;6.53;;;2.43;;
13388;SDS011;6764;53.250;10.410;2023-04-25T08:47:06;6.20;;;2.67;;
13388;SDS011;6764;53.250;10.410;2023-04-25T08:49:32;8.27;;;2.77;;
13388;SDS011;6764;53.250;10.410;2023-04-25T08:52:03;6.50;;;2.10;;
13388;SDS011;6764;53.250;10.410;2023-04-25T08:54:32;11.57;;;2.90;;
13388;SDS011;6764;53.250;10.410;2023-04-25T08:57:01;10.47;;;2.90;;
13388;SDS011;6764;53.250;10.410;2023-04-25T08:59:28;5.50;;;2.40;;
13388;SDS011;6764;53.250;10.410;2023-04-25T09:01:55;5.67;;;2.40;;
13388;SDS011;6764;53.250;10.410;2023-04-25T09:04:21;7.67;;;2.43;;
13388;SDS011;6764;53.250;10.410;2023-04-25T09:06:47;9.50;;;2.55;;
13388;SDS011;6764;53.250;10.410;2023-04-25T09:09:12;6.15;;;2.25;;
13388;SDS011;6764;53.250;10.410;2023-04-25T09:11:38;5.57;;;2.13;;
13388;SDS011;6764;53.250;10.410;2023-04-25T09:14:12;6.72;;;2.40;;
13388;SDS011;6764;53.250;10.410;2023-04-25T09:17:21;7.47;;;2.38;;
13388;SDS011;6764;53.250;10.410;2023-04-25T09:22:05;6.47;;;2.33;;
13388;SDS011;6764;53.250;10.410;2023-04-25T09:24:38;6.23;;;2.47;;
13388;SDS011;6764;53.250;10.410;2023-04-25T09:27:06;7.13;;;2.40;;
13388;SDS011;6764;53.250;10.410;2023-04-25T09:29:35;8.07;;;3.03;;
13388;SDS011;6764;53.250;10.410;2023-04-25T09:32:15;8.10;;;2.70;;
13388;SDS011;6764;53.250;10.410;2023-04-25T09:34:49;5.90;;;3.07;;
13388;SDS011;6764;53.250;10.410;2023-04-25T09:37:17;10.63;;;2.90;;
13388;SDS011;6764;53.250;10.410;2023-04-25T09:39:47;7.77;;;2.03;;
13388;SDS011;6764;53.250;10.410;2023-04-25T09:42:15;6.53;;;2.77;;
13388;SDS011;6764;53.250;10.410;2023-04-25T09:44:42;6.77;;;2.13;;
13388;SDS011;6764;53.250;10.410;2023-04-25T09:47:10;4.13;;;2.07;;
13388;SDS011;6764;53.250;10.410;2023-04-25T09:49:41;9.47;;;2.20;;
13388;SDS011;6764;53.250;10.410;2023-04-25T09:52:07;5.23;;;2.50;;
13388;SDS011;6764;53.250;10.410;2023-04-25T09:54:34;5.80;;;2.53;;
13388;SDS011;6764;53.250;10.410;2023-04-25T09:57:02;6.00;;;2.43;;
13388;SDS011;6764;53.250;10.410;2023-04-25T09:59:47;5.73;;;2.50;;
13388;SDS011;6764;53.250;10.410;2023-04-25T10:02:20;4.70;;;2.23;;
13388;SDS011;6764;53.250;10.410;2023-04-25T10:04:50;5.07;;;2.03;;
13388;SDS011;6764;53.250;10.410;2023-04-25T10:07:20;6.47;;;1.90;;
13388;SDS011;6764;53.250;10.410;2023-04-25T10:10:02;4.70;;;2.20;;
13388;SDS011;6764;53.250;10.410;2023-04-25T10:12:30;6.33;;;2.00;;
13388;SDS011;6764;53.250;10.410;2023-04-25T10:14:57;7.30;;;2.13;;
13388;SDS011;6764;53.250;10.410;2023-04-25T10:17:23;6.40;;;2.20;;
13388;SDS011;6764;53.250;10.410;2023-04-25T10:19:51;7.10;;;1.93;;
13388;SDS011;6764;53.250;10.410;2023-04-25T10:22:28;4.83;;;2.17;;
13388;SDS011;6764;53.250;10.410;2023-04-25T10:24:57;8.50;;;2.43;;
13388;SDS011;6764;53.250;10.410;2023-04-25T10:27:24;3.50;;;1.70;;
13388;SDS011;6764;53.250;10.410;2023-04-25T10:32:36;5.17;;;1.83;;
13388;SDS011;6764;53.250;10.410;2023-04-25T10:40:28;5.93;;;2.20;;
13388;SDS011;6764;53.250;10.410;2023-04-25T10:42:54;4.23;;;1.80;;
13388;SDS011;6764;53.250;10.410;2023-04-25T10:45:20;7.60;;;2.60;;
13388;SDS011;6764;53.250;10.410;2023-04-25T10:47:46;4.73;;;2.50;;
13388;SDS011;6764;53.250;10.410;2023-04-25T10:50:14;6.73;;;2.60;;
13388;SDS011;6764;53.250;10.410;2023-04-25T10:52:41;5.83;;;2.53;;
13388;SDS011;6764;53.250;10.410;2023-04-25T10:55:07;4.60;;;1.90;;
13388;SDS011;6764;53.250;10.410;2023-04-25T10:57:40;7.10;;;2.07;;
13388;SDS011;6764;53.250;10.410;2023-04-25T11:02:38;3.33;;;2.00;;
13388;SDS011;6764;53.250;10.410;2023-04-25T11:05:10;6.25;;;2.30;;
13388;SDS011;6764;53.250;10.410;2023-04-25T11:07:51;7.03;;;2.15;;
13388;SDS011;6764;53.250;10.410;2023-04-25T11:10:19;9.15;;;2.25;;
13388;SDS011;6764;53.250;10.410;2023-04-25T11:12:45;7.43;;;2.20;;
13388;SDS011;6764;53.250;10.410;2023-04-25T11:15:12;5.28;;;2.20;;
13388;SDS011;6764;53.250;10.410;2023-04-25T11:17:38;5.43;;;2.30;;
13388;SDS011;6764;53.250;10.410;2023-04-25T11:20:05;5.78;;;2.03;;
13388;SDS011;6764;53.250;10.410;2023-04-25T11:22:36;3.67;;;1.83;;
13388;SDS011;6764;53.250;10.410;2023-04-25T11:25:10;7.47;;;2.25;;
13388;SDS011;6764;53.250;10.410;2023-04-25T11:27:58;3.60;;;2.00;;
13388;SDS011;6764;53.250;10.410;2023-04-25T11:30:26;8.40;;;3.30;;
13388;SDS011;6764;53.250;10.410;2023-04-25T11:32:53;6.10;;;2.30;;
13388;SDS011;6764;53.250;10.410;2023-04-25T11:35:19;6.60;;;2.77;;
13388;SDS011;6764;53.250;10.410;2023-04-25T11:37:47;6.30;;;2.20;;
13388;SDS011;6764;53.250;10.410;2023-04-25T11:40:14;12.60;;;2.87;;
13388;SDS011;6764;53.250;10.410;2023-04-25T11:42:44;4.27;;;2.27;;
13388;SDS011;6764;53.250;10.410;2023-04-25T11:45:10;7.33;;;2.70;;
13388;SDS011;6764;53.250;10.410;2023-04-25T11:47:37;6.67;;;2.00;;
13388;SDS011;6764;53.250;10.410;2023-04-25T11:50:03;6.33;;;2.03;;
13388;SDS011;6764;53.250;10.410;2023-04-25T11:52:37;4.60;;;1.90;;
13388;SDS011;6764;53.250;10.410;2023-04-25T11:55:12;5.17;;;2.37;;
13388;SDS011;6764;53.250;10.410;2023-04-25T11:57:42;5.13;;;1.90;;
13388;SDS011;6764;53.250;10.410;2023-04-25T12:00:16;5.23;;;2.30;;
13388;SDS011;6764;53.250;10.410;2023-04-25T12:02:44;7.07;;;2.33;;
13388;SDS011;6764;53.250;10.410;2023-04-25T12:05:15;3.97;;;1.90;;
13388;SDS011;6764;53.250;10.410;2023-04-25T12:07:41;5.23;;;2.07;;
13388;SDS011;6764;53.250;10.410;2023-04-25T12:10:11;3.33;;;1.77;;
13388;SDS011;6764;53.250;10.410;2023-04-25T12:12:41;5.70;;;1.83;;
13388;SDS011;6764;53.250;10.410;2023-04-25T12:15:11;5.07;;;1.87;;
13388;SDS011;6764;53.250;10.410;2023-04-25T12:17:47;6.10;;;2.90;;
13388;SDS011;6764;53.250;10.410;2023-04-25T12:20:17;10.53;;;2.17;;
13388;SDS011;6764;53.250;10.410;2023-04-25T12:22:45;4.57;;;2.13;;
13388;SDS011;6764;53.250;10.410;2023-04-25T12:25:12;5.63;;;2.00;;
13388;SDS011;6764;53.250;10.410;2023-04-25T12:31:03;6.60;;;2.13;;
13388;SDS011;6764;53.250;10.410;2023-04-25T12:36:00;5.40;;;2.17;;
13388;SDS011;6764;53.250;10.410;2023-04-25T12:38:35;6.23;;;2.10;;
13388;SDS011;6764;53.250;10.410;2023-04-25T12:41:02;4.33;;;1.93;;
13388;SDS011;6764;53.250;10.410;2023-04-25T12:43:28;5.83;;;2.07;;
13388;SDS011;6764;53.250;10.410;2023-04-25T12:45:54;5.30;;;1.80;;
13388;SDS011;6764;53.250;10.410;2023-04-25T12:48:20;12.20;;;5.53;;
13388;SDS011;6764;53.250;10.410;2023-04-25T12:50:46;5.63;;;2.63;;
13388;SDS011;6764;53.250;10.410;2023-04-25T12:53:20;6.27;;;3.27;;
13388;SDS011;6764;53.250;10.410;2023-04-25T12:55:46;8.83;;;2.17;;
13388;SDS011;6764;53.250;10.410;2023-04-25T12:58:13;8.70;;;2.00;;
13388;SDS011;6764;53.250;10.410;2023-04-25T13:00:39;4.37;;;2.13;;
13388;SDS011;6764;53.250;10.410;2023-04-25T13:03:04;4.20;;;2.30;;
13388;SDS011;6764;53.250;10.410;2023-04-25T13:05:30;7.03;;;2.80;;
13388;SDS011;6764;53.250;10.410;2023-04-25T13:07:56;4.83;;;2.23;;
13388;SDS011;6764;53.250;10.410;2023-04-25T13:10:22;6.40;;;2.80;;
13388;SDS011;6764;53.250;10.410;2023-04-25T13:12:48;7.13;;;2.63;;
13388;SDS011;6764;53.250;10.410;2023-04-25T13:15:13;5.50;;;2.43;;
13388;SDS011;6764;53.250;10.410;2023-04-25T13:17:40;5.03;;;2.10;;
13388;SDS011;6764;53.250;10.410;2023-04-25T13:20:06;8.27;;;3.00;;
13388;SDS011;6764;53.250;10.410;2023-04-25T13:22:37;7.67;;;2.47;;
13388;SDS011;6764;53.250;10.410;2023-04-25T13:25:04;9.87;;;2.40;;
13388;SDS011;6764;53.250;10.410;2023-04-25T13:27:34;5.63;;;1.73;;
13388;SDS011;6764;53.250;10.410;2023-04-25T13:30:01;5.37;;;2.00;;
13388;SDS011;6764;53.250;10.410;2023-04-25T13:32:32;9.50;;;2.00;;
13388;SDS011;6764;53.250;10.410;2023-04-25T13:34:59;3.37;;;2.20;;
13388;SDS011;6764;53.250;10.410;2023-04-25T13:37:25;3.20;;;1.50;;
13388;SDS011;6764;53.250;10.410;2023-04-25T13:39:51;5.37;;;2.00;;
13388;SDS011;6764;53.250;10.410;2023-04-25T13:42:17;8.23;;;2.17;;
13388;SDS011;6764;53.250;10.410;2023-04-25T13:44:42;2.90;;;2.00;;
13388;SDS011;6764;53.250;10.410;2023-04-25T13:47:08;5.77;;;2.87;;
13388;SDS011;6764;53.250;10.410;2023-04-25T13:49:33;5.47;;;2.10;;
13388;SDS011;6764;53.250;10.410;2023-04-25T13:51:59;4.93;;;2.20;;
13388;SDS011;6764;53.250;10.410;2023-04-25T13:54:25;4.97;;;2.07;;
13388;SDS011;6764;53.250;10.410;2023-04-25T13:56:50;7.17;;;1.80;;
13388;SDS011;6764;53.250;10.410;2023-04-25T13:59:17;4.47;;;2.03;;
13388;SDS011;6764;53.250;10.410;2023-04-25T14:01:42;6.13;;;1.87;;
13388;SDS011;6764;53.250;10.410;2023-04-25T14:04:08;6.57;;;3.03;;
13388;SDS011;6764;53.250;10.410;2023-04-25T14:06:34;5.23;;;3.13;;
13388;SDS011;6764;53.250;10.410;2023-04-25T14:09:00;5.73;;;2.10;;
13388;SDS011;6764;53.250;10.410;2023-04-25T14:11:26;3.03;;;1.67;;
13388;SDS011;6764;53.250;10.410;2023-04-25T14:13:51;3.80;;;2.20;;
13388;SDS011;6764;53.250;10.410;2023-04-25T14:16:17;8.20;;;2.10;;
13388;SDS011;6764;53.250;10.410;2023-04-25T14:18:43;4.17;;;2.10;;
13388;SDS011;6764;53.250;10.410;2023-04-25T14:21:08;4.60;;;2.60;;
13388;SDS011;6764;53.250;10.410;2023-04-25T14:23:34;4.93;;;2.17;;
13388;SDS011;6764;53.250;10.410;2023-04-25T14:26:00;8.67;;;2.00;;
13388;SDS011;6764;53.250;10.410;2023-04-25T14:28:26;4.90;;;1.83;;
13388;SDS011;6764;53.250;10.410;2023-04-25T14:30:52;11.30;;;2.27;;
13388;SDS011;6764;53.250;10.410;2023-04-25T14:33:17;5.83;;;2.30;;
13388;SDS011;6764;53.250;10.410;2023-04-25T14:35:43;7.03;;;2.87;;
13388;SDS011;6764;53.250;10.410;2023-04-25T14:38:09;8.30;;;2.73;;
13388;SDS011;6764;53.250;10.410;2023-04-25T14:40:35;6.43;;;2.43;;
13388;SDS011;6764;53.250;10.410;2023-04-25T14:43:00;5.93;;;2.33;;
13388;SDS011;6764;53.250;10.410;2023-04-25T14:45:26;3.67;;;2.07;;
13388;SDS011;6764;53.250;10.410;2023-04-25T14:47:52;8.73;;;3.40;;
13388;SDS011;6764;53.250;10.410;2023-04-25T14:50:17;4.20;;;2.30;;
13388;SDS011;6764;53.250;10.410;2023-04-25T14:52:43;7.13;;;2.17;;
13388;SDS011;6764;53.250;10.410;2023-04-25T14:55:10;4.17;;;2.57;;
13388;SDS011;6764;53.250;10.410;2023-04-25T14:57:35;7.97;;;2.30;;
13388;SDS011;6764;53.250;10.410;2023-04-25T15:00:01;7.10;;;2.10;;
13388;SDS011;6764;53.250;10.410;2023-04-25T15:02:29;7.30;;;2.40;;
13388;SDS011;6764;53.250;10.410;2023-04-25T15:04:56;7.53;;;2.73;;